createdAt,value
2023-04-25T00:02:07.904Z,57.30
2023-04-25T00:04:36.266Z,57.83
2023-04-25T00:07:06.401Z,57.39
2023-04-25T00:09:34.725Z,57.75
2023-04-25T00:12:03.012Z,57.82
2023-04-25T00:14:34.587Z,57.88
2023-04-25T00:17:03.637Z,57.57
2023-04-25T00:19:31.706Z,57.84
2023-04-25T00:21:59.963Z,57.26
2023-04-25T00:24:29.489Z,57.59
2023-04-25T00:26:57.533Z,58.08
2023-04-25T00:29:25.764Z,57.79
2023-04-25T00:31:53.886Z,58.12
2023-04-25T00:34:21.959Z,57.72
2023-04-25T00:36:50.098Z,57.90
2023-04-25T00:39:18.140Z,58.48
2023-04-25T00:41:48.007Z,59.09
2023-04-25T00:44:18.096Z,59.28
2023-04-25T00:46:46.671Z,58.68
2023-04-25T00:49:16.520Z,58.75
2023-04-25T00:51:46.075Z,58.73
2023-04-25T00:54:15.401Z,58.90
2023-04-25T00:56:44.107Z,58.77
2023-04-25T00:59:14.507Z,59.36
2023-04-25T01:01:45.267Z,59.15
2023-04-25T01:04:13.856Z,58.81
2023-04-25T01:06:42.632Z,59.27
2023-04-25T01:09:11.551Z,59.18
2023-04-25T01:11:41.195Z,59.77
2023-04-25T01:14:09.428Z,59.51
2023-04-25T01:16:39.126Z,59.61
2023-04-25T01:19:11.965Z,59.16
2023-04-25T01:21:41.715Z,59.33
2023-04-25T01:24:10.536Z,59.82
2023-04-25T01:26:39.409Z,59.07
2023-04-25T01:29:08.292Z,59.53
2023-04-25T01:31:38.141Z,59.84
2023-04-25T01:34:07.333Z,59.56
2023-04-25T01:36:36.314Z,59.54
2023-04-25T01:39:05.942Z,59.40
2023-04-25T01:41:35.463Z,59.05
2023-04-25T01:44:04.645Z,59.25
2023-04-25T01:46:32.810Z,59.12
2023-04-25T01:49:01.259Z,60.01
2023-04-25T01:51:29.695Z,59.63
2023-04-25T01:54:01.013Z,59.65
2023-04-25T01:56:34.629Z,60.23
2023-04-25T01:59:05.260Z,60.51
2023-04-25T02:02:05.780Z,60.38
2023-04-25T02:04:35.591Z,60.61
2023-04-25T02:07:05.973Z,60.49
2023-04-25T02:09:48.967Z,59.99
2023-04-25T02:12:20.069Z,60.23
2023-04-25T02:14:57.177Z,60.42
2023-04-25T02:17:37.250Z,60.18
2023-04-25T02:20:07.136Z,60.57
2023-04-25T02:22:36.393Z,60.94
2023-04-25T02:25:09.519Z,61.04
2023-04-25T02:27:39.872Z,60.91
2023-04-25T02:30:10.772Z,60.82
2023-04-25T02:32:38.918Z,61.49
2023-04-25T02:35:32.158Z,60.67
2023-04-25T02:38:00.335Z,60.60
2023-04-25T02:40:28.574Z,60.54
2023-04-25T02:42:57.939Z,60.42
2023-04-25T02:45:28.214Z,60.46
2023-04-25T02:47:57.244Z,60.57
2023-04-25T02:50:25.506Z,61.09
2023-04-25T02:52:53.597Z,60.76
2023-04-25T02:55:28.500Z,61.07
2023-04-25T02:57:59.658Z,61.00
2023-04-25T03:00:39.661Z,61.00
2023-04-25T03:03:07.897Z,61.59
2023-04-25T03:05:36.253Z,61.14
2023-04-25T03:08:04.826Z,61.73
2023-04-25T03:10:34.675Z,61.88
2023-04-25T03:13:08.048Z,61.59
2023-04-25T03:15:37.547Z,61.46
2023-04-25T03:18:05.959Z,61.54
2023-04-25T03:20:34.040Z,61.82
2023-04-25T03:23:02.086Z,61.47
2023-04-25T03:25:31.481Z,62.13
2023-04-25T03:27:59.939Z,61.59
2023-04-25T03:30:29.779Z,61.79
2023-04-25T03:32:57.972Z,62.13
2023-04-25T03:35:26.242Z,61.65
2023-04-25T03:37:54.753Z,61.65
2023-04-25T03:40:28.208Z,61.63
2023-04-25T03:43:10.602Z,61.25
2023-04-25T03:45:41.205Z,61.60
2023-04-25T03:48:09.392Z,61.55
2023-04-25T03:50:37.618Z,61.41
2023-04-25T03:53:06.486Z,61.41
2023-04-25T03:55:52.125Z,61.68
2023-04-25T03:58:20.360Z,61.42
2023-04-25T04:00:51.142Z,61.87
2023-04-25T04:03:19.610Z,61.51
2023-04-25T04:05:48.563Z,61.62
2023-04-25T04:08:16.614Z,61.25
2023-04-25T04:10:44.701Z,61.87
2023-04-25T04:13:13.293Z,61.86
2023-04-25T04:15:41.413Z,61.08
2023-04-25T04:18:11.824Z,61.68
2023-04-25T04:20:40.094Z,62.16
2023-04-25T04:23:08.929Z,61.51
2023-04-25T04:25:37.678Z,61.92
2023-04-25T04:28:12.007Z,62.46
2023-04-25T04:30:47.983Z,62.43
2023-04-25T04:33:17.445Z,62.63
2023-04-25T04:35:49.551Z,62.47
2023-04-25T04:38:19.530Z,62.52
2023-04-25T04:40:48.700Z,61.57
2023-04-25T04:43:37.631Z,61.72
2023-04-25T04:46:41.888Z,61.83
2023-04-25T04:49:23.445Z,62.03
2023-04-25T04:52:17.891Z,62.35
2023-04-25T04:55:03.196Z,61.53
2023-04-25T04:57:43.474Z,61.93
2023-04-25T05:00:16.600Z,62.35
2023-04-25T05:02:47.459Z,61.82
2023-04-25T05:05:40.820Z,61.91
2023-04-25T05:08:35.105Z,62.28
2023-04-25T05:11:26.152Z,62.57
2023-04-25T05:14:12.859Z,62.19
2023-04-25T05:16:59.683Z,62.57
2023-04-25T05:19:40.348Z,62.14
2023-04-25T05:22:19.687Z,62.80
2023-04-25T05:25:10.697Z,62.51
2023-04-25T05:27:53.537Z,62.39
2023-04-25T05:31:00.179Z,62.99
2023-04-25T05:33:38.372Z,63.01
2023-04-25T05:36:08.031Z,63.06
2023-04-25T05:38:37.658Z,63.05
2023-04-25T05:41:24.028Z,63.48
2023-04-25T05:44:13.710Z,63.28
2023-04-25T05:47:05.957Z,63.32
2023-04-25T05:49:52.675Z,63.39
2023-04-25T05:52:28.760Z,62.91
2023-04-25T05:55:09.058Z,63.10
2023-04-25T05:57:37.481Z,63.01
2023-04-25T06:00:10.257Z,63.63
2023-04-25T06:02:41.842Z,63.24
2023-04-25T06:05:11.947Z,63.40
2023-04-25T06:07:40.450Z,63.18
2023-04-25T06:10:12.744Z,62.46
2023-04-25T06:12:40.815Z,62.85
2023-04-25T06:15:24.407Z,62.79
2023-04-25T06:17:56.382Z,63.24
2023-04-25T06:20:25.552Z,63.19
2023-04-25T06:22:55.476Z,62.72
2023-04-25T06:25:33.164Z,63.17
2023-04-25T06:28:01.699Z,63.16
2023-04-25T06:30:31.950Z,63.12
2023-04-25T06:33:05.908Z,63.13
2023-04-25T06:35:34.666Z,63.61
2023-04-25T06:38:02.996Z,64.06
2023-04-25T06:40:33.922Z,64.30
2023-04-25T06:43:02.122Z,65.07
2023-04-25T06:45:48.794Z,65.21
2023-04-25T06:48:17.459Z,65.96
2023-04-25T06:50:45.843Z,65.64
2023-04-25T06:53:14.534Z,66.21
2023-04-25T06:55:46.771Z,66.34
2023-04-25T06:58:19.209Z,66.25
2023-04-25T07:00:56.284Z,66.46
2023-04-25T07:03:26.731Z,66.76
2023-04-25T07:05:59.768Z,66.46
2023-04-25T07:08:27.944Z,67.21
2023-04-25T07:10:57.486Z,67.09
2023-04-25T07:13:25.693Z,66.80
2023-04-25T07:15:56.022Z,67.70
2023-04-25T07:18:25.475Z,68.62
2023-04-25T07:20:53.935Z,67.52
2023-04-25T07:23:22.388Z,68.03
2023-04-25T07:25:50.549Z,67.87
2023-04-25T07:28:24.187Z,68.04
2023-04-25T07:30:52.250Z,67.57
2023-04-25T07:33:21.462Z,67.58
2023-04-25T07:35:49.829Z,68.09
2023-04-25T07:38:18.860Z,67.85
2023-04-25T07:40:47.189Z,68.25
2023-04-25T07:43:17.557Z,68.14
2023-04-25T07:45:58.048Z,68.23
2023-04-25T07:48:28.677Z,68.32
2023-04-25T07:50:58.344Z,68.50
2023-04-25T07:53:26.859Z,68.11
2023-04-25T07:56:00.200Z,68.38
2023-04-25T07:58:30.508Z,68.46
2023-04-25T08:01:03.346Z,68.19
2023-04-25T08:03:48.571Z,69.04
2023-04-25T08:06:23.598Z,68.53
2023-04-25T08:09:12.623Z,68.55
2023-04-25T08:11:43.950Z,69.12
2023-04-25T08:14:14.793Z,69.10
2023-04-25T08:16:46.229Z,69.26
2023-04-25T08:19:40.945Z,68.53
2023-04-25T08:22:14.201Z,68.26
2023-04-25T08:24:56.706Z,68.60
2023-04-25T08:27:25.060Z,68.52
2023-04-25T08:29:53.523Z,68.87
2023-04-25T08:32:23.707Z,68.69
2023-04-25T08:35:09.380Z,68.42
2023-04-25T08:37:37.964Z,68.28
2023-04-25T08:40:16.572Z,68.36
2023-04-25T08:42:59.889Z,68.40
2023-04-25T08:45:29.843Z,68.56
2023-04-25T08:48:00.795Z,68.91
2023-04-25T08:50:29.686Z,69.02
2023-04-25T08:53:05.989Z,69.31
2023-04-25T08:55:35.564Z,69.56
2023-04-25T08:58:04.447Z,68.97
2023-04-25T09:00:32.838Z,68.78
2023-04-25T09:03:03.491Z,68.86
2023-04-25T09:05:35.618Z,69.53
2023-04-25T09:08:03.981Z,68.75
2023-04-25T09:13:09.658Z,68.40
2023-04-25T09:16:00.121Z,68.71
2023-04-25T09:18:48.346Z,69.49
2023-04-25T09:21:17.114Z,69.33
2023-04-25T09:23:50.748Z,69.83
2023-04-25T09:26:23.117Z,69.99
2023-04-25T09:29:08.165Z,69.24
2023-04-25T09:31:39.163Z,69.92
2023-04-25T09:34:16.496Z,69.90
2023-04-25T09:36:49.111Z,69.44
2023-04-25T09:39:43.006Z,70.12
2023-04-25T09:42:16.537Z,70.75
2023-04-25T09:44:46.361Z,69.65
2023-04-25T09:47:17.461Z,69.67
2023-04-25T09:49:47.950Z,70.08
2023-04-25T09:52:18.822Z,70.27
2023-04-25T09:55:10.281Z,70.98
2023-04-25T09:57:40.672Z,69.98
2023-04-25T10:00:13.892Z,69.86
2023-04-25T10:02:47.783Z,70.25
2023-04-25T10:05:36.682Z,69.31
2023-04-25T10:08:06.010Z,69.58
2023-04-25T10:10:37.232Z,70.21
2023-04-25T10:13:07.573Z,69.75
2023-04-25T10:15:40.154Z,70.03
2023-04-25T10:18:24.215Z,70.49
2023-04-25T10:20:54.487Z,70.42
2023-04-25T10:23:22.883Z,70.18
2023-04-25T10:25:52.946Z,70.25
2023-04-25T10:28:21.738Z,70.52
2023-04-25T10:31:09.245Z,69.84
2023-04-25T10:33:39.666Z,70.22
2023-04-25T10:36:14.148Z,69.86
2023-04-25T10:38:44.421Z,69.75
2023-04-25T10:41:14.524Z,70.28
2023-04-25T10:43:45.317Z,70.06
2023-04-25T10:46:21.706Z,70.21
2023-04-25T10:48:52.192Z,69.51
2023-04-25T10:51:29.535Z,69.43
2023-04-25T10:54:03.970Z,69.53
2023-04-25T10:56:33.662Z,69.99
2023-04-25T10:59:11.089Z,70.20
2023-04-25T11:01:43.308Z,70.17
2023-04-25T11:04:32.802Z,70.55
2023-04-25T11:07:24.437Z,70.83
2023-04-25T11:09:52.748Z,69.30
2023-04-25T11:12:21.008Z,69.00
2023-04-25T11:14:49.098Z,68.66
2023-04-25T11:17:17.301Z,68.57
2023-04-25T11:19:45.496Z,69.49
2023-04-25T11:22:14.996Z,69.08
2023-04-25T11:24:43.797Z,69.00
2023-04-25T11:27:12.029Z,69.38
2023-04-25T11:29:40.237Z,69.24
2023-04-25T11:32:08.512Z,70.36
2023-04-25T11:34:36.949Z,69.87
2023-04-25T11:37:07.086Z,69.57
2023-04-25T11:39:36.825Z,68.79
2023-04-25T11:42:14.018Z,68.23
2023-04-25T11:44:42.666Z,67.72
2023-04-25T11:47:10.853Z,69.25
2023-04-25T11:49:39.122Z,69.42
2023-04-25T11:52:09.216Z,69.72
2023-04-25T11:54:39.526Z,69.61
2023-04-25T11:57:07.673Z,69.93
2023-04-25T11:59:35.793Z,70.28
2023-04-25T12:02:03.932Z,69.72
2023-04-25T12:04:34.176Z,70.25
2023-04-25T12:07:03.292Z,70.68
2023-04-25T12:09:34.224Z,70.58
2023-04-25T12:12:04.687Z,70.29
2023-04-25T12:14:34.983Z,70.64
2023-04-25T12:17:05.295Z,69.70
2023-04-25T12:19:36.090Z,70.36
2023-04-25T12:22:05.794Z,70.26
2023-04-25T12:27:34.638Z,69.93
2023-04-25T12:30:04.369Z,69.59
2023-04-25T12:32:32.565Z,70.18
2023-04-25T12:35:00.963Z,69.97
2023-04-25T12:37:30.946Z,70.35
2023-04-25T12:39:59.033Z,70.41
2023-04-25T12:42:27.176Z,70.12
2023-04-25T12:44:56.624Z,71.36
2023-04-25T12:47:24.841Z,70.27
2023-04-25T12:49:52.913Z,70.34
2023-04-25T12:52:21.010Z,71.10
2023-04-25T12:54:49.152Z,70.97
2023-04-25T12:57:17.200Z,70.06
2023-04-25T12:59:45.381Z,70.34
2023-04-25T13:02:15.118Z,69.62
2023-04-25T13:04:43.231Z,70.01
2023-04-25T13:07:11.577Z,69.24
2023-04-25T13:09:39.649Z,71.10
2023-04-25T13:12:08.509Z,70.76
2023-04-25T13:14:36.603Z,70.45
2023-04-25T13:17:05.700Z,69.99
2023-04-25T13:19:35.308Z,69.43
2023-04-25T13:22:05.164Z,70.10
2023-04-25T13:24:33.485Z,70.29
2023-04-25T13:27:02.399Z,69.64
2023-04-25T13:29:30.532Z,69.67
2023-04-25T13:31:58.693Z,69.62
2023-04-25T13:34:29.522Z,69.34
2023-04-25T13:37:04.998Z,68.95
2023-04-25T13:39:33.362Z,69.42
2023-04-25T13:42:01.626Z,69.55
2023-04-25T13:44:29.802Z,69.08
2023-04-25T13:46:58.015Z,68.51
2023-04-25T13:49:26.248Z,70.10
2023-04-25T13:51:54.321Z,70.20
2023-04-25T13:54:24.133Z,69.61
2023-04-25T13:56:52.892Z,68.68
2023-04-25T13:59:20.947Z,68.85
2023-04-25T14:01:49.144Z,67.61
2023-04-25T14:04:17.321Z,67.61
2023-04-25T14:06:45.941Z,67.84
2023-04-25T14:09:14.293Z,67.56
2023-04-25T14:11:43.718Z,67.95
2023-04-25T14:14:13.062Z,68.19
2023-04-25T14:16:41.300Z,67.64
2023-04-25T14:19:09.509Z,67.44
2023-04-25T14:21:37.825Z,67.23
2023-04-25T14:24:07.409Z,66.96
2023-04-25T14:26:36.477Z,66.87
2023-04-25T14:29:07.069Z,66.19
2023-04-25T14:31:35.770Z,65.68
2023-04-25T14:34:04.610Z,66.27
2023-04-25T14:36:33.131Z,66.01
2023-04-25T14:39:01.951Z,65.85
2023-04-25T14:41:30.103Z,66.52
2023-04-25T14:43:58.588Z,66.95
2023-04-25T14:46:28.340Z,67.25
2023-04-25T14:48:57.316Z,66.09
2023-04-25T14:51:25.515Z,66.21
2023-04-25T14:53:54.010Z,66.96
2023-04-25T14:56:22.363Z,65.47
2023-04-25T14:58:50.794Z,65.78
2023-04-25T15:01:21.570Z,64.92
2023-04-25T15:03:52.312Z,64.99
2023-04-25T15:06:20.738Z,66.30
2023-04-25T15:08:48.815Z,64.95
2023-04-25T15:11:16.999Z,65.81
2023-04-25T15:13:46.156Z,64.20
2023-04-25T15:16:15.192Z,63.41
2023-04-25T15:18:43.449Z,64.11
2023-04-25T15:21:12.978Z,63.25
2023-04-25T15:23:41.383Z,63.13
2023-04-25T15:26:10.327Z,62.89
2023-04-25T15:28:38.528Z,62.45
2023-04-25T15:31:07.014Z,63.53
2023-04-25T15:33:36.160Z,63.45
2023-04-25T15:36:05.062Z,64.01
2023-04-25T15:38:34.438Z,64.44
2023-04-25T15:41:03.787Z,63.34
2023-04-25T15:43:32.873Z,63.60
2023-04-25T15:46:01.391Z,63.02
2023-04-25T15:48:29.545Z,62.74
2023-04-25T15:50:57.701Z,62.95
2023-04-25T15:53:25.955Z,62.98
2023-04-25T15:55:55.625Z,62.11
2023-04-25T15:58:23.896Z,62.04
2023-04-25T16:00:52.031Z,62.79
2023-04-25T16:03:20.350Z,62.67
2023-04-25T16:05:49.140Z,63.09
2023-04-25T16:08:18.074Z,63.03
2023-04-25T16:10:46.236Z,62.22
2023-04-25T16:13:15.727Z,61.91
2023-04-25T16:15:43.855Z,63.33
2023-04-25T16:18:12.093Z,63.54
2023-04-25T16:20:40.382Z,63.21
2023-04-25T16:23:08.468Z,63.02
2023-04-25T16:25:36.577Z,63.25
2023-04-25T16:28:04.832Z,62.96
2023-04-25T16:30:34.338Z,62.75
2023-04-25T16:33:02.573Z,63.34
2023-04-25T16:35:32.453Z,63.21
2023-04-25T16:38:00.714Z,63.68
2023-04-25T16:40:28.828Z,63.38
2023-04-25T16:42:57.220Z,63.41
2023-04-25T16:45:26.244Z,63.81
2023-04-25T16:47:55.863Z,63.41
2023-04-25T16:50:24.021Z,63.65
2023-04-25T16:52:52.246Z,63.56
2023-04-25T16:55:20.758Z,63.05
2023-04-25T16:57:48.817Z,62.81
2023-04-25T17:00:18.654Z,62.05
2023-04-25T17:02:47.284Z,62.23
2023-04-25T17:05:17.062Z,62.19
2023-04-25T17:07:45.229Z,62.43
2023-04-25T17:10:13.341Z,62.87
2023-04-25T17:12:41.468Z,63.31
2023-04-25T17:15:11.271Z,65.20
2023-04-25T17:17:39.577Z,64.96
2023-04-25T17:20:09.915Z,66.07
2023-04-25T17:22:44.314Z,65.41
2023-04-25T17:25:19.919Z,63.81
2023-04-25T17:27:48.095Z,63.93
2023-04-25T17:33:10.208Z,64.07
2023-04-25T17:35:38.361Z,65.45
2023-04-25T17:38:08.002Z,65.62
2023-04-25T17:40:36.687Z,67.05
2023-04-25T17:43:04.856Z,66.96
2023-04-25T17:45:34.803Z,67.32
2023-04-25T17:48:03.714Z,68.28
2023-04-25T17:50:32.589Z,68.28
2023-04-25T17:53:03.200Z,68.66
2023-04-25T17:55:32.603Z,69.39
2023-04-25T17:58:00.856Z,68.95
2023-04-25T18:00:30.091Z,68.75
2023-04-25T18:02:58.584Z,68.87
2023-04-25T18:05:27.858Z,68.13
2023-04-25T18:07:57.523Z,67.99
2023-04-25T18:10:25.874Z,68.62
2023-04-25T18:12:55.304Z,68.80
2023-04-25T18:15:23.533Z,68.92
2023-04-25T18:17:52.279Z,69.39
2023-04-25T18:20:21.607Z,68.61
2023-04-25T18:22:49.677Z,68.76
2023-04-25T18:25:18.271Z,68.94
2023-04-25T18:27:46.741Z,68.42
2023-04-25T18:30:16.230Z,68.72
2023-04-25T18:32:44.485Z,68.91
2023-04-25T18:35:12.602Z,68.42
2023-04-25T18:37:42.319Z,68.81
2023-04-25T18:40:14.265Z,69.18
2023-04-25T18:42:43.051Z,68.75
2023-04-25T18:45:12.675Z,68.17
2023-04-25T18:47:43.979Z,69.29
2023-04-25T18:50:12.862Z,68.99
2023-04-25T18:52:42.245Z,68.87
2023-04-25T18:55:11.283Z,69.10
2023-04-25T18:57:40.232Z,69.22
2023-04-25T19:00:11.268Z,68.92
2023-04-25T19:02:39.732Z,68.97
2023-04-25T19:05:11.113Z,68.90
2023-04-25T19:07:40.476Z,69.22
2023-04-25T19:10:09.964Z,69.12
2023-04-25T19:12:38.009Z,69.18
2023-04-25T19:15:09.740Z,69.26
2023-04-25T19:17:37.892Z,68.68
2023-04-25T19:20:09.396Z,68.72
2023-04-25T19:22:37.520Z,69.36
2023-04-25T19:25:10.772Z,68.60
2023-04-25T19:27:39.503Z,68.80
2023-04-25T19:30:10.715Z,69.21
2023-04-25T19:32:39.461Z,69.17
2023-04-25T19:35:11.789Z,68.99
2023-04-25T19:37:45.903Z,69.28
2023-04-25T19:40:18.116Z,69.09
2023-04-25T19:42:46.431Z,70.03
2023-04-25T19:45:14.483Z,69.03
2023-04-25T19:47:43.776Z,70.10
2023-04-25T19:50:13.929Z,70.04
2023-04-25T19:52:42.188Z,69.30
2023-04-25T19:55:11.339Z,69.55
2023-04-25T19:57:39.491Z,69.64
2023-04-25T20:00:11.952Z,69.46
2023-04-25T20:02:41.150Z,69.65
2023-04-25T20:05:10.722Z,69.77
2023-04-25T20:07:40.556Z,68.96
2023-04-25T20:10:13.293Z,69.21
2023-04-25T20:12:42.314Z,69.01
2023-04-25T20:15:12.122Z,69.47
2023-04-25T20:17:41.638Z,70.07
2023-04-25T20:20:11.592Z,69.63
2023-04-25T20:22:41.138Z,69.50
2023-04-25T20:25:12.245Z,69.30
2023-04-25T20:27:40.616Z,69.51
2023-04-25T20:30:12.051Z,69.36
2023-04-25T20:32:40.395Z,69.54
2023-04-25T20:35:10.220Z,69.74
2023-04-25T20:37:39.709Z,69.21
2023-04-25T20:40:10.118Z,69.50
2023-04-25T20:42:38.364Z,69.70
2023-04-25T20:45:12.904Z,69.44
2023-04-25T20:47:42.738Z,69.45
2023-04-25T20:50:12.155Z,69.50
2023-04-25T20:52:41.632Z,69.80
2023-04-25T20:55:11.811Z,69.40
2023-04-25T20:57:39.916Z,69.37
2023-04-25T21:00:16.672Z,69.30
2023-04-25T21:02:45.145Z,69.08
2023-04-25T21:05:13.586Z,68.97
2023-04-25T21:07:44.476Z,68.73
2023-04-25T21:10:12.919Z,68.85
2023-04-25T21:12:41.126Z,69.28
2023-04-25T21:15:16.714Z,69.05
2023-04-25T21:17:47.260Z,69.55
2023-04-25T21:20:17.745Z,69.60
2023-04-25T21:22:51.788Z,69.91
2023-04-25T21:25:31.100Z,69.54
2023-04-25T21:28:02.089Z,69.75
2023-04-25T21:30:30.766Z,69.81
2023-04-25T21:32:58.812Z,69.78
2023-04-25T21:35:26.886Z,69.02
2023-04-25T21:37:56.242Z,69.09
2023-04-25T21:40:24.459Z,68.85
2023-04-25T21:42:53.528Z,69.13
2023-04-25T21:45:22.360Z,68.74
2023-04-25T21:47:51.046Z,68.58
2023-04-25T21:50:19.729Z,69.15
2023-04-25T21:52:48.168Z,69.18
2023-04-25T21:55:19.630Z,69.38
2023-04-25T21:57:47.817Z,69.63
2023-04-25T22:00:24.532Z,69.69
2023-04-25T22:02:53.630Z,69.82
2023-04-25T22:05:22.536Z,69.71
2023-04-25T22:07:52.991Z,69.76
2023-04-25T22:10:23.115Z,69.46
2023-04-25T22:12:51.475Z,69.56
2023-04-25T22:15:21.447Z,68.79
2023-04-25T22:17:49.582Z,68.97
2023-04-25T22:20:23.054Z,69.18
2023-04-25T22:22:51.222Z,68.80
2023-04-25T22:25:19.579Z,69.70
2023-04-25T22:27:49.337Z,68.80
2023-04-25T22:30:18.309Z,68.69
2023-04-25T22:32:46.431Z,68.83
2023-04-25T22:35:14.594Z,69.21
2023-04-25T22:37:42.869Z,69.33
2023-04-25T22:40:12.120Z,69.20
2023-04-25T22:42:41.076Z,69.13
2023-04-25T22:45:12.429Z,69.22
2023-04-25T22:47:41.725Z,69.28
2023-04-25T22:50:14.720Z,68.39
2023-04-25T22:52:43.034Z,68.92
2023-04-25T22:55:12.103Z,69.24
2023-04-25T22:57:41.419Z,69.10
2023-04-25T23:00:19.618Z,69.14
2023-04-25T23:02:47.991Z,69.10
2023-04-25T23:05:16.545Z,68.82
2023-04-25T23:07:45.020Z,68.55
2023-04-25T23:10:14.190Z,68.39
2023-04-25T23:12:42.734Z,68.65
2023-04-25T23:15:13.428Z,68.55
2023-04-25T23:17:42.105Z,68.78
2023-04-25T23:20:12.087Z,67.99
2023-04-25T23:22:40.515Z,67.75
2023-04-25T23:25:10.415Z,68.08
2023-04-25T23:27:38.530Z,67.51
2023-04-25T23:30:09.076Z,67.69
2023-04-25T23:32:38.785Z,67.33
2023-04-25T23:35:08.114Z,67.18
2023-04-25T23:37:37.057Z,67.41
2023-04-25T23:40:09.770Z,67.49
2023-04-25T23:42:38.512Z,67.06
2023-04-25T23:45:10.133Z,67.51
2023-04-25T23:47:39.696Z,67.28
2023-04-25T23:50:09.544Z,67.05
2023-04-25T23:52:37.877Z,66.87
2023-04-25T23:55:07.261Z,66.83
2023-04-25T23:57:35.400Z,66.94
